sensor_id;sensor_type;location;lat;lon;timestamp;pressure;altitude;pressure_sealevel;temperature;humidity
13952;BME280;39535;52.192;9.886;2022-08-21T00:01:26;100865.69;;;18.61;67.08
13952;BME280;39535;52.192;9.886;2022-08-21T00:03:55;100829.72;;;18.76;68.44
13952;BME280;39535;52.192;9.886;2022-08-21T00:06:22;100766.38;;;18.92;69.52
13952;BME280;39535;52.192;9.886;2022-08-21T00:08:49;100732.34;;;19.03;69.33
13952;BME280;39535;52.192;9.886;2022-08-21T00:11:16;100761.28;;;19.07;68.48
13952;BME280;39535;52.192;9.886;2022-08-21T00:13:43;100776.06;;;19.11;68.36
13952;BME280;39535;52.192;9.886;2022-08-21T00:16:09;100794.59;;;19.11;67.99
13952;BME280;39535;52.192;9.886;2022-08-21T00:18:37;100797.09;;;19.14;67.99
13952;BME280;39535;52.192;9.886;2022-08-21T00:21:05;100798.03;;;19.13;68.03
13952;BME280;39535;52.192;9.886;2022-08-21T00:23:34;100801.84;;;19.07;67.76
13952;BME280;39535;52.192;9.886;2022-08-21T00:26:00;100799.56;;;18.99;67.90
13952;BME280;39535;52.192;9.886;2022-08-21T00:28:27;100812.16;;;18.94;67.63
13952;BME280;39535;52.192;9.886;2022-08-21T00:30:53;100818.28;;;18.95;67.39
13952;BME280;39535;52.192;9.886;2022-08-21T00:33:21;100813.22;;;18.90;67.83
13952;BME280;39535;52.192;9.886;2022-08-21T00:35:48;100804.44;;;18.90;68.04
13952;BME280;39535;52.192;9.886;2022-08-21T00:38:16;100793.06;;;18.88;68.28
13952;BME280;39535;52.192;9.886;2022-08-21T00:40:44;100780.09;;;18.83;68.80
13952;BME280;39535;52.192;9.886;2022-08-21T00:43:14;100773.63;;;18.89;68.47
13952;BME280;39535;52.192;9.886;2022-08-21T00:45:41;100784.91;;;18.92;68.11
13952;BME280;39535;52.192;9.886;2022-08-21T00:48:09;100805.00;;;18.96;67.69
13952;BME280;39535;52.192;9.886;2022-08-21T00:50:39;100816.66;;;18.92;67.80
13952;BME280;39535;52.192;9.886;2022-08-21T00:53:06;100813.00;;;18.95;67.95
13952;BME280;39535;52.192;9.886;2022-08-21T00:55:35;100808.00;;;18.89;68.24
13952;BME280;39535;52.192;9.886;2022-08-21T00:58:06;100803.59;;;18.89;68.14
13952;BME280;39535;52.192;9.886;2022-08-21T01:00:36;100789.47;;;18.89;68.52
13952;BME280;39535;52.192;9.886;2022-08-21T01:03:06;100770.06;;;18.90;69.40
13952;BME280;39535;52.192;9.886;2022-08-21T01:05:34;100769.28;;;18.88;68.86
13952;BME280;39535;52.192;9.886;2022-08-21T01:08:00;100753.31;;;18.89;69.06
13952;BME280;39535;52.192;9.886;2022-08-21T01:10:27;100805.44;;;18.87;68.12
13952;BME280;39535;52.192;9.886;2022-08-21T01:12:56;100817.34;;;18.77;68.10
13952;BME280;39535;52.192;9.886;2022-08-21T01:15:29;100829.66;;;18.78;67.80
13952;BME280;39535;52.192;9.886;2022-08-21T01:17:56;100838.72;;;18.72;67.22
13952;BME280;39535;52.192;9.886;2022-08-21T01:20:23;100852.66;;;18.76;67.21
13952;BME280;39535;52.192;9.886;2022-08-21T01:22:51;100846.44;;;18.77;67.45
13952;BME280;39535;52.192;9.886;2022-08-21T01:25:18;100872.78;;;18.80;66.71
13952;BME280;39535;52.192;9.886;2022-08-21T01:27:46;100797.78;;;18.81;68.88
13952;BME280;39535;52.192;9.886;2022-08-21T01:30:16;100791.63;;;18.80;68.83
13952;BME280;39535;52.192;9.886;2022-08-21T01:32:44;100773.31;;;18.76;68.86
13952;BME280;39535;52.192;9.886;2022-08-21T01:35:12;100787.75;;;18.69;68.63
13952;BME280;39535;52.192;9.886;2022-08-21T01:37:39;100818.16;;;18.60;68.66
13952;BME280;39535;52.192;9.886;2022-08-21T01:40:09;100833.78;;;18.45;67.34
13952;BME280;39535;52.192;9.886;2022-08-21T01:42:36;100865.06;;;17.95;67.29
13952;BME280;39535;52.192;9.886;2022-08-21T01:45:03;100818.94;;;17.61;69.14
13952;BME280;39535;52.192;9.886;2022-08-21T01:47:30;100778.66;;;17.35;70.10
13952;BME280;39535;52.192;9.886;2022-08-21T01:49:56;100736.13;;;17.43;71.62
13952;BME280;39535;52.192;9.886;2022-08-21T01:52:22;100686.09;;;17.60;71.75
13952;BME280;39535;52.192;9.886;2022-08-21T01:54:49;100699.47;;;17.56;70.79
13952;BME280;39535;52.192;9.886;2022-08-21T01:57:17;100686.56;;;17.50;72.03
13952;BME280;39535;52.192;9.886;2022-08-21T01:59:43;100688.44;;;17.27;72.06
13952;BME280;39535;52.192;9.886;2022-08-21T02:02:10;100655.44;;;17.37;72.42
13952;BME280;39535;52.192;9.886;2022-08-21T02:04:36;100668.81;;;17.53;72.15
13952;BME280;39535;52.192;9.886;2022-08-21T02:07:03;100649.72;;;17.67;73.21
13952;BME280;39535;52.192;9.886;2022-08-21T02:09:30;100669.84;;;17.70;72.22
13952;BME280;39535;52.192;9.886;2022-08-21T02:11:56;100659.38;;;17.68;73.42
13952;BME280;39535;52.192;9.886;2022-08-21T02:14:24;100668.78;;;17.74;72.21
13952;BME280;39535;52.192;9.886;2022-08-21T02:16:51;100673.78;;;17.80;72.40
13952;BME280;39535;52.192;9.886;2022-08-21T02:19:18;100645.41;;;17.85;73.18
13952;BME280;39535;52.192;9.886;2022-08-21T02:21:44;100664.56;;;17.90;72.50
13952;BME280;39535;52.192;9.886;2022-08-21T02:24:11;100635.28;;;17.95;73.60
13952;BME280;39535;52.192;9.886;2022-08-21T02:26:38;100599.94;;;17.97;74.19
13952;BME280;39535;52.192;9.886;2022-08-21T02:29:05;100582.09;;;18.02;74.45
13952;BME280;39535;52.192;9.886;2022-08-21T02:31:32;100614.50;;;18.06;73.14
13952;BME280;39535;52.192;9.886;2022-08-21T02:33:59;100665.84;;;18.00;72.39
13952;BME280;39535;52.192;9.886;2022-08-21T02:36:26;100678.56;;;17.92;72.01
13952;BME280;39535;52.192;9.886;2022-08-21T02:38:52;100688.31;;;17.90;71.94
13952;BME280;39535;52.192;9.886;2022-08-21T02:41:20;100706.16;;;17.85;71.51
13952;BME280;39535;52.192;9.886;2022-08-21T02:43:47;100710.94;;;17.75;71.40
13952;BME280;39535;52.192;9.886;2022-08-21T02:46:16;100694.94;;;17.59;72.17
13952;BME280;39535;52.192;9.886;2022-08-21T02:48:45;100691.56;;;17.56;71.64
13952;BME280;39535;52.192;9.886;2022-08-21T02:51:15;100667.50;;;17.43;72.92
13952;BME280;39535;52.192;9.886;2022-08-21T02:53:43;100647.47;;;17.39;72.87
13952;BME280;39535;52.192;9.886;2022-08-21T02:56:15;100654.53;;;17.38;72.84
13952;BME280;39535;52.192;9.886;2022-08-21T02:58:44;100656.22;;;17.39;72.74
13952;BME280;39535;52.192;9.886;2022-08-21T03:01:12;100653.78;;;17.35;72.91
13952;BME280;39535;52.192;9.886;2022-08-21T03:03:40;100641.50;;;17.34;73.39
13952;BME280;39535;52.192;9.886;2022-08-21T03:06:12;100643.31;;;17.33;72.56
13952;BME280;39535;52.192;9.886;2022-08-21T03:08:39;100643.50;;;17.29;73.20
13952;BME280;39535;52.192;9.886;2022-08-21T03:11:07;100635.31;;;17.14;73.72
13952;BME280;39535;52.192;9.886;2022-08-21T03:13:33;100623.19;;;17.10;73.79
13952;BME280;39535;52.192;9.886;2022-08-21T03:16:00;100622.66;;;17.02;74.01
13952;BME280;39535;52.192;9.886;2022-08-21T03:18:27;100614.94;;;16.97;74.26
13952;BME280;39535;52.192;9.886;2022-08-21T03:20:53;100598.97;;;17.00;74.97
13952;BME280;39535;52.192;9.886;2022-08-21T03:23:21;100610.00;;;17.10;73.87
13952;BME280;39535;52.192;9.886;2022-08-21T03:25:47;100647.81;;;17.11;73.20
13952;BME280;39535;52.192;9.886;2022-08-21T03:28:19;100638.03;;;17.13;73.64
13952;BME280;39535;52.192;9.886;2022-08-21T03:30:50;100627.50;;;17.13;73.47
13952;BME280;39535;52.192;9.886;2022-08-21T03:33:17;100657.34;;;17.13;73.05
13952;BME280;39535;52.192;9.886;2022-08-21T03:35:45;100654.84;;;17.10;73.35
13952;BME280;39535;52.192;9.886;2022-08-21T03:38:14;100646.00;;;17.11;73.91
13952;BME280;39535;52.192;9.886;2022-08-21T03:40:42;100577.72;;;17.24;77.03
13952;BME280;39535;52.192;9.886;2022-08-21T03:43:09;100524.63;;;17.32;76.35
13952;BME280;39535;52.192;9.886;2022-08-21T03:45:36;100590.81;;;17.27;74.31
13952;BME280;39535;52.192;9.886;2022-08-21T03:48:05;100633.06;;;17.25;73.01
13952;BME280;39535;52.192;9.886;2022-08-21T03:50:33;100668.16;;;17.27;72.50
13952;BME280;39535;52.192;9.886;2022-08-21T03:53:01;100662.16;;;17.24;73.08
13952;BME280;39535;52.192;9.886;2022-08-21T03:55:28;100671.97;;;17.20;72.83
13952;BME280;39535;52.192;9.886;2022-08-21T03:57:55;100682.94;;;17.11;72.88
13952;BME280;39535;52.192;9.886;2022-08-21T04:00:22;100648.91;;;17.05;74.25
13952;BME280;39535;52.192;9.886;2022-08-21T04:02:49;100645.88;;;17.14;74.08
13952;BME280;39535;52.192;9.886;2022-08-21T04:05:17;100671.53;;;17.11;73.33
13952;BME280;39535;52.192;9.886;2022-08-21T04:07:52;100666.69;;;17.20;73.61
13952;BME280;39535;52.192;9.886;2022-08-21T04:10:19;100655.34;;;17.18;73.75
13952;BME280;39535;52.192;9.886;2022-08-21T04:12:45;100660.47;;;17.23;73.53
13952;BME280;39535;52.192;9.886;2022-08-21T04:15:13;100664.88;;;17.22;73.46
13952;BME280;39535;52.192;9.886;2022-08-21T04:17:39;100639.69;;;17.15;74.64
13952;BME280;39535;52.192;9.886;2022-08-21T04:20:07;100647.66;;;17.14;74.18
13952;BME280;39535;52.192;9.886;2022-08-21T04:22:33;100642.66;;;17.07;74.39
13952;BME280;39535;52.192;9.886;2022-08-21T04:25:00;100646.91;;;17.10;74.47
13952;BME280;39535;52.192;9.886;2022-08-21T04:27:26;100642.84;;;17.03;74.20
13952;BME280;39535;52.192;9.886;2022-08-21T04:29:53;100655.09;;;17.04;73.98
13952;BME280;39535;52.192;9.886;2022-08-21T04:32:22;100680.31;;;17.11;73.86
13952;BME280;39535;52.192;9.886;2022-08-21T04:34:49;100660.06;;;17.12;74.47
13952;BME280;39535;52.192;9.886;2022-08-21T04:37:15;100662.75;;;17.10;74.01
13952;BME280;39535;52.192;9.886;2022-08-21T04:39:42;100663.88;;;17.04;74.13
13952;BME280;39535;52.192;9.886;2022-08-21T04:42:08;100660.06;;;17.12;74.43
13952;BME280;39535;52.192;9.886;2022-08-21T04:44:35;100645.06;;;17.12;75.41
13952;BME280;39535;52.192;9.886;2022-08-21T04:47:02;100572.69;;;17.19;77.29
13952;BME280;39535;52.192;9.886;2022-08-21T04:49:35;100632.31;;;16.81;74.08
13952;BME280;39535;52.192;9.886;2022-08-21T04:52:02;100640.47;;;16.75;75.58
13952;BME280;39535;52.192;9.886;2022-08-21T04:54:28;100603.78;;;16.91;76.18
13952;BME280;39535;52.192;9.886;2022-08-21T04:56:57;100627.09;;;17.01;75.31
13952;BME280;39535;52.192;9.886;2022-08-21T04:59:32;100652.09;;;17.13;74.65
13952;BME280;39535;52.192;9.886;2022-08-21T05:02:01;100657.22;;;17.16;74.65
13952;BME280;39535;52.192;9.886;2022-08-21T05:04:30;100668.31;;;17.24;74.69
13952;BME280;39535;52.192;9.886;2022-08-21T05:07:04;100652.28;;;17.29;75.06
13952;BME280;39535;52.192;9.886;2022-08-21T05:09:32;100665.19;;;17.35;74.53
13952;BME280;39535;52.192;9.886;2022-08-21T05:12:00;100668.84;;;17.33;75.04
13952;BME280;39535;52.192;9.886;2022-08-21T05:14:27;100646.00;;;17.32;75.79
13952;BME280;39535;52.192;9.886;2022-08-21T05:16:53;100633.03;;;17.27;75.97
13952;BME280;39535;52.192;9.886;2022-08-21T05:19:19;100635.44;;;17.32;75.61
13952;BME280;39535;52.192;9.886;2022-08-21T05:21:46;100617.44;;;17.41;76.66
13952;BME280;39535;52.192;9.886;2022-08-21T05:24:15;100597.75;;;17.49;77.05
13952;BME280;39535;52.192;9.886;2022-08-21T05:26:41;100580.94;;;17.51;77.20
13952;BME280;39535;52.192;9.886;2022-08-21T05:29:08;100563.22;;;17.53;77.67
13952;BME280;39535;52.192;9.886;2022-08-21T05:31:34;100561.53;;;17.52;78.36
13952;BME280;39535;52.192;9.886;2022-08-21T05:34:01;100564.72;;;17.40;78.39
13952;BME280;39535;52.192;9.886;2022-08-21T05:36:27;100523.94;;;16.66;80.81
13952;BME280;39535;52.192;9.886;2022-08-21T05:38:53;100446.03;;;16.81;82.40
13952;BME280;39535;52.192;9.886;2022-08-21T05:41:21;100420.53;;;17.01;82.52
13952;BME280;39535;52.192;9.886;2022-08-21T05:43:48;100451.47;;;17.16;81.13
13952;BME280;39535;52.192;9.886;2022-08-21T05:46:15;100492.97;;;17.32;80.17
13952;BME280;39535;52.192;9.886;2022-08-21T05:48:41;100521.25;;;17.09;80.40
13952;BME280;39535;52.192;9.886;2022-08-21T05:51:11;100528.13;;;17.32;79.54
13952;BME280;39535;52.192;9.886;2022-08-21T05:53:38;100507.69;;;17.56;80.98
13952;BME280;39535;52.192;9.886;2022-08-21T05:56:07;100511.44;;;17.70;80.61
13952;BME280;39535;52.192;9.886;2022-08-21T05:58:35;100514.31;;;17.84;80.32
13952;BME280;39535;52.192;9.886;2022-08-21T06:01:03;100541.94;;;17.96;80.23
13952;BME280;39535;52.192;9.886;2022-08-21T06:03:33;100529.97;;;18.06;79.83
13952;BME280;39535;52.192;9.886;2022-08-21T06:06:00;100602.66;;;18.15;77.25
13952;BME280;39535;52.192;9.886;2022-08-21T06:08:27;100613.69;;;18.23;77.90
13952;BME280;39535;52.192;9.886;2022-08-21T06:10:55;100568.09;;;18.37;79.93
13952;BME280;39535;52.192;9.886;2022-08-21T06:13:23;100618.78;;;18.45;77.24
13952;BME280;39535;52.192;9.886;2022-08-21T06:16:01;100668.66;;;18.53;75.88
13952;BME280;39535;52.192;9.886;2022-08-21T06:18:27;100735.22;;;18.61;74.10
13952;BME280;39535;52.192;9.886;2022-08-21T06:20:54;100827.88;;;18.59;71.58
13952;BME280;39535;52.192;9.886;2022-08-21T06:23:20;100868.66;;;18.54;71.55
13952;BME280;39535;52.192;9.886;2022-08-21T06:25:47;100848.38;;;18.54;71.86
13952;BME280;39535;52.192;9.886;2022-08-21T06:28:13;100860.78;;;18.52;72.02
13952;BME280;39535;52.192;9.886;2022-08-21T06:30:40;100854.50;;;18.55;72.04
13952;BME280;39535;52.192;9.886;2022-08-21T06:33:08;100846.22;;;18.62;71.90
13952;BME280;39535;52.192;9.886;2022-08-21T06:35:35;100838.94;;;18.68;71.97
13952;BME280;39535;52.192;9.886;2022-08-21T06:38:02;100807.78;;;18.74;73.06
13952;BME280;39535;52.192;9.886;2022-08-21T06:40:29;100799.28;;;18.68;73.53
13952;BME280;39535;52.192;9.886;2022-08-21T06:42:56;100746.47;;;18.47;75.10
13952;BME280;39535;52.192;9.886;2022-08-21T06:45:23;100712.50;;;18.57;75.46
13952;BME280;39535;52.192;9.886;2022-08-21T06:47:49;100682.34;;;18.61;76.34
13952;BME280;39535;52.192;9.886;2022-08-21T06:50:17;100646.34;;;18.58;77.52
13952;BME280;39535;52.192;9.886;2022-08-21T06:52:44;100635.16;;;18.71;77.47
13952;BME280;39535;52.192;9.886;2022-08-21T06:55:11;100612.84;;;18.76;78.27
13952;BME280;39535;52.192;9.886;2022-08-21T06:57:38;100588.72;;;18.65;79.98
13952;BME280;39535;52.192;9.886;2022-08-21T07:00:05;100565.47;;;18.54;80.10
13952;BME280;39535;52.192;9.886;2022-08-21T07:02:32;100559.03;;;18.60;79.80
13952;BME280;39535;52.192;9.886;2022-08-21T07:04:59;100548.03;;;18.33;81.12
13952;BME280;39535;52.192;9.886;2022-08-21T07:07:27;100534.38;;;18.42;81.01
13952;BME280;39535;52.192;9.886;2022-08-21T07:09:53;100541.06;;;18.49;81.18
13952;BME280;39535;52.192;9.886;2022-08-21T07:12:20;100546.56;;;18.44;80.82
13952;BME280;39535;52.192;9.886;2022-08-21T07:14:46;100522.63;;;18.30;81.67
13952;BME280;39535;52.192;9.886;2022-08-21T07:17:13;100520.06;;;18.29;81.53
13952;BME280;39535;52.192;9.886;2022-08-21T07:19:40;100542.31;;;18.42;81.02
13952;BME280;39535;52.192;9.886;2022-08-21T07:22:06;100551.16;;;18.41;80.89
13952;BME280;39535;52.192;9.886;2022-08-21T07:24:34;100558.25;;;18.58;80.69
13952;BME280;39535;52.192;9.886;2022-08-21T07:27:01;100602.72;;;18.50;79.12
13952;BME280;39535;52.192;9.886;2022-08-21T07:29:27;100628.47;;;18.63;78.62
13952;BME280;39535;52.192;9.886;2022-08-21T07:31:53;100672.34;;;18.68;76.81
13952;BME280;39535;52.192;9.886;2022-08-21T07:34:20;100699.00;;;18.82;76.00
13952;BME280;39535;52.192;9.886;2022-08-21T07:36:46;100701.88;;;18.95;75.76
13952;BME280;39535;52.192;9.886;2022-08-21T07:39:13;100743.72;;;18.87;75.25
13952;BME280;39535;52.192;9.886;2022-08-21T07:41:40;100746.97;;;18.93;74.68
13952;BME280;39535;52.192;9.886;2022-08-21T07:44:07;100772.31;;;18.97;73.35
13952;BME280;39535;52.192;9.886;2022-08-21T07:46:33;100790.91;;;18.96;73.77
13952;BME280;39535;52.192;9.886;2022-08-21T07:49:00;100810.50;;;18.92;72.34
13952;BME280;39535;52.192;9.886;2022-08-21T07:51:27;100838.09;;;19.05;72.85
13952;BME280;39535;52.192;9.886;2022-08-21T07:53:56;100888.09;;;19.11;70.67
13952;BME280;39535;52.192;9.886;2022-08-21T07:56:23;100888.72;;;19.16;71.37
13952;BME280;39535;52.192;9.886;2022-08-21T07:58:51;100845.56;;;18.97;72.19
13952;BME280;39535;52.192;9.886;2022-08-21T08:01:17;100822.13;;;19.07;72.74
13952;BME280;39535;52.192;9.886;2022-08-21T08:03:44;100794.44;;;19.14;73.04
13952;BME280;39535;52.192;9.886;2022-08-21T08:06:11;100842.03;;;19.15;71.05
13952;BME280;39535;52.192;9.886;2022-08-21T08:08:39;100858.25;;;19.27;70.84
13952;BME280;39535;52.192;9.886;2022-08-21T08:11:07;100867.28;;;19.40;70.33
13952;BME280;39535;52.192;9.886;2022-08-21T08:13:38;100925.41;;;19.43;68.59
13952;BME280;39535;52.192;9.886;2022-08-21T08:16:06;100944.25;;;19.54;68.81
13952;BME280;39535;52.192;9.886;2022-08-21T08:18:39;100933.53;;;19.57;68.00
13952;BME280;39535;52.192;9.886;2022-08-21T08:21:07;100972.81;;;19.67;67.83
13952;BME280;39535;52.192;9.886;2022-08-21T08:23:34;101001.00;;;19.68;66.75
13952;BME280;39535;52.192;9.886;2022-08-21T08:26:01;100997.38;;;19.70;66.60
13952;BME280;39535;52.192;9.886;2022-08-21T08:28:29;100974.25;;;19.74;67.58
13952;BME280;39535;52.192;9.886;2022-08-21T08:30:57;100939.84;;;19.91;68.42
13952;BME280;39535;52.192;9.886;2022-08-21T08:33:25;100964.31;;;19.96;66.81
13952;BME280;39535;52.192;9.886;2022-08-21T08:35:52;100971.41;;;19.96;66.59
13952;BME280;39535;52.192;9.886;2022-08-21T08:38:21;100954.66;;;20.13;67.46
13952;BME280;39535;52.192;9.886;2022-08-21T08:40:52;100962.94;;;20.24;66.55
13952;BME280;39535;52.192;9.886;2022-08-21T08:43:21;100992.31;;;20.19;66.50
13952;BME280;39535;52.192;9.886;2022-08-21T08:45:50;100985.63;;;20.30;66.56
13952;BME280;39535;52.192;9.886;2022-08-21T08:48:36;101017.28;;;20.33;64.93
13952;BME280;39535;52.192;9.886;2022-08-21T08:51:07;101041.28;;;20.47;64.69
13952;BME280;39535;52.192;9.886;2022-08-21T08:53:38;101089.59;;;20.54;63.21
13952;BME280;39535;52.192;9.886;2022-08-21T08:56:10;101126.41;;;20.61;61.78
13952;BME280;39535;52.192;9.886;2022-08-21T08:58:39;101166.50;;;20.73;61.67
13952;BME280;39535;52.192;9.886;2022-08-21T09:01:12;101201.31;;;20.84;59.89
13952;BME280;39535;52.192;9.886;2022-08-21T09:03:43;101238.81;;;20.95;59.07
13952;BME280;39535;52.192;9.886;2022-08-21T09:06:22;101284.63;;;20.99;57.91
13952;BME280;39535;52.192;9.886;2022-08-21T09:09:02;101276.22;;;21.08;58.62
13952;BME280;39535;52.192;9.886;2022-08-21T09:11:39;101324.84;;;21.09;55.40
13952;BME280;39535;52.192;9.886;2022-08-21T09:14:13;101356.88;;;21.06;53.98
13952;BME280;39535;52.192;9.886;2022-08-21T09:16:47;101408.66;;;21.14;54.80
13952;BME280;39535;52.192;9.886;2022-08-21T09:19:32;101392.91;;;21.29;55.18
13952;BME280;39535;52.192;9.886;2022-08-21T09:22:08;101365.19;;;21.34;54.70
13952;BME280;39535;52.192;9.886;2022-08-21T09:24:44;101394.06;;;21.42;55.13
13952;BME280;39535;52.192;9.886;2022-08-21T09:27:16;101365.91;;;21.57;54.74
13952;BME280;39535;52.192;9.886;2022-08-21T09:29:45;101363.88;;;21.62;54.89
13952;BME280;39535;52.192;9.886;2022-08-21T09:32:18;101361.22;;;21.62;54.49
13952;BME280;39535;52.192;9.886;2022-08-21T09:34:57;101353.56;;;21.73;54.90
13952;BME280;39535;52.192;9.886;2022-08-21T09:37:25;101355.75;;;21.83;54.44
13952;BME280;39535;52.192;9.886;2022-08-21T09:39:53;101366.59;;;21.78;53.92
13952;BME280;39535;52.192;9.886;2022-08-21T09:42:25;101373.59;;;21.80;53.76
13952;BME280;39535;52.192;9.886;2022-08-21T09:45:08;101381.94;;;21.90;52.45
13952;BME280;39535;52.192;9.886;2022-08-21T09:47:35;101384.56;;;22.08;53.04
13952;BME280;39535;52.192;9.886;2022-08-21T09:50:15;101411.56;;;22.00;51.90
13952;BME280;39535;52.192;9.886;2022-08-21T09:52:47;101437.28;;;21.99;51.62
13952;BME280;39535;52.192;9.886;2022-08-21T09:55:18;101442.59;;;21.99;51.53
13952;BME280;39535;52.192;9.886;2022-08-21T09:57:59;101413.59;;;22.12;51.52
13952;BME280;39535;52.192;9.886;2022-08-21T10:00:28;101443.84;;;22.10;50.81
13952;BME280;39535;52.192;9.886;2022-08-21T10:03:07;101455.19;;;22.13;51.34
13952;BME280;39535;52.192;9.886;2022-08-21T10:05:37;101408.81;;;22.36;52.16
13952;BME280;39535;52.192;9.886;2022-08-21T10:08:03;101444.19;;;22.38;50.02
13952;BME280;39535;52.192;9.886;2022-08-21T10:10:32;101485.66;;;22.25;49.24
13952;BME280;39535;52.192;9.886;2022-08-21T10:13:12;101495.97;;;22.31;49.34
13952;BME280;39535;52.192;9.886;2022-08-21T10:15:47;101479.22;;;22.47;49.43
13952;BME280;39535;52.192;9.886;2022-08-21T10:18:21;101472.25;;;22.62;48.82
13952;BME280;39535;52.192;9.886;2022-08-21T10:20:55;101499.97;;;22.40;47.80
13952;BME280;39535;52.192;9.886;2022-08-21T10:23:40;101509.28;;;22.49;48.13
13952;BME280;39535;52.192;9.886;2022-08-21T10:26:25;101495.50;;;22.58;49.38
13952;BME280;39535;52.192;9.886;2022-08-21T10:29:03;101465.59;;;22.53;48.63
13952;BME280;39535;52.192;9.886;2022-08-21T10:31:37;101478.03;;;22.70;48.80
13952;BME280;39535;52.192;9.886;2022-08-21T10:34:16;101469.03;;;22.88;48.19
13952;BME280;39535;52.192;9.886;2022-08-21T10:37:03;101484.31;;;23.02;47.08
13952;BME280;39535;52.192;9.886;2022-08-21T10:39:35;101521.31;;;23.07;46.79
13952;BME280;39535;52.192;9.886;2022-08-21T10:42:15;101559.09;;;22.97;46.91
13952;BME280;39535;52.192;9.886;2022-08-21T10:44:49;101538.78;;;23.12;47.71
13952;BME280;39535;52.192;9.886;2022-08-21T10:47:27;101485.00;;;22.88;48.00
13952;BME280;39535;52.192;9.886;2022-08-21T10:49:59;101483.16;;;22.73;47.97
13952;BME280;39535;52.192;9.886;2022-08-21T10:52:46;101416.56;;;22.90;47.30
13952;BME280;39535;52.192;9.886;2022-08-21T10:55:18;101457.78;;;22.99;47.87
13952;BME280;39535;52.192;9.886;2022-08-21T10:57:50;101472.97;;;23.14;47.70
13952;BME280;39535;52.192;9.886;2022-08-21T11:00:22;101459.72;;;23.29;47.56
13952;BME280;39535;52.192;9.886;2022-08-21T11:02:55;101473.59;;;23.51;47.38
13952;BME280;39535;52.192;9.886;2022-08-21T11:05:27;101519.81;;;23.50;45.71
13952;BME280;39535;52.192;9.886;2022-08-21T11:08:02;101529.78;;;23.63;45.59
13952;BME280;39535;52.192;9.886;2022-08-21T11:10:33;101562.50;;;23.82;44.60
13952;BME280;39535;52.192;9.886;2022-08-21T11:13:08;101569.34;;;24.02;45.11
13952;BME280;39535;52.192;9.886;2022-08-21T11:15:45;101570.56;;;24.12;42.64
13952;BME280;39535;52.192;9.886;2022-08-21T11:18:21;101612.47;;;24.26;43.99
13952;BME280;39535;52.192;9.886;2022-08-21T11:20:54;101614.13;;;24.43;42.61
13952;BME280;39535;52.192;9.886;2022-08-21T11:23:38;101661.16;;;24.14;41.79
13952;BME280;39535;52.192;9.886;2022-08-21T11:26:09;101655.03;;;24.28;41.77
13952;BME280;39535;52.192;9.886;2022-08-21T11:28:45;101646.59;;;24.35;42.28
13952;BME280;39535;52.192;9.886;2022-08-21T11:31:24;101608.00;;;24.57;43.81
13952;BME280;39535;52.192;9.886;2022-08-21T11:34:03;101605.28;;;24.43;42.25
13952;BME280;39535;52.192;9.886;2022-08-21T11:36:37;101594.25;;;24.93;43.16
13952;BME280;39535;52.192;9.886;2022-08-21T11:39:16;101611.44;;;26.44;40.67
13952;BME280;39535;52.192;9.886;2022-08-21T11:41:52;101755.59;;;26.92;36.13
13952;BME280;39535;52.192;9.886;2022-08-21T11:44:33;101835.41;;;26.45;38.02
13952;BME280;39535;52.192;9.886;2022-08-21T11:47:11;101825.88;;;25.53;38.07
13952;BME280;39535;52.192;9.886;2022-08-21T11:49:48;101776.72;;;25.26;39.50
13952;BME280;39535;52.192;9.886;2022-08-21T11:52:19;101767.00;;;25.98;37.05
13952;BME280;39535;52.192;9.886;2022-08-21T11:54:52;101800.03;;;27.09;36.59
13952;BME280;39535;52.192;9.886;2022-08-21T11:57:24;101885.56;;;27.66;33.85
13952;BME280;39535;52.192;9.886;2022-08-21T11:59:53;101940.13;;;28.95;33.54
13952;BME280;39535;52.192;9.886;2022-08-21T12:02:28;101951.25;;;31.13;32.35
13952;BME280;39535;52.192;9.886;2022-08-21T12:04:59;102033.00;;;33.15;29.18
13952;BME280;39535;52.192;9.886;2022-08-21T12:07:32;102143.16;;;32.73;27.44
13952;BME280;39535;52.192;9.886;2022-08-21T12:10:05;102132.34;;;31.64;28.00
13952;BME280;39535;52.192;9.886;2022-08-21T12:12:35;102008.00;;;30.77;30.04
13952;BME280;39535;52.192;9.886;2022-08-21T12:15:25;101936.66;;;30.14;31.00
13952;BME280;39535;52.192;9.886;2022-08-21T12:17:56;101912.50;;;30.01;31.47
13952;BME280;39535;52.192;9.886;2022-08-21T12:20:35;101913.97;;;31.39;29.99
13952;BME280;39535;52.192;9.886;2022-08-21T12:23:06;101951.31;;;32.91;28.23
13952;BME280;39535;52.192;9.886;2022-08-21T12:25:44;102013.91;;;30.71;28.72
13952;BME280;39535;52.192;9.886;2022-08-21T12:28:14;101932.16;;;29.06;31.10
13952;BME280;39535;52.192;9.886;2022-08-21T12:30:43;101840.19;;;29.49;31.52
13952;BME280;39535;52.192;9.886;2022-08-21T12:33:21;101871.78;;;29.70;30.91
13952;BME280;39535;52.192;9.886;2022-08-21T12:35:49;101870.75;;;30.74;29.96
13952;BME280;39535;52.192;9.886;2022-08-21T12:38:19;101894.03;;;30.07;28.96
13952;BME280;39535;52.192;9.886;2022-08-21T12:40:52;101856.59;;;28.85;30.72
13952;BME280;39535;52.192;9.886;2022-08-21T12:43:21;101838.16;;;28.31;31.66
13952;BME280;39535;52.192;9.886;2022-08-21T12:45:51;101775.41;;;28.69;32.78
13952;BME280;39535;52.192;9.886;2022-08-21T12:48:21;101752.81;;;29.20;32.63
13952;BME280;39535;52.192;9.886;2022-08-21T12:50:52;101741.38;;;29.52;33.65
13952;BME280;39535;52.192;9.886;2022-08-21T12:53:26;101761.91;;;29.53;32.38
13952;BME280;39535;52.192;9.886;2022-08-21T12:55:55;101760.59;;;30.03;32.40
13952;BME280;39535;52.192;9.886;2022-08-21T12:58:27;101791.59;;;29.04;31.07
13952;BME280;39535;52.192;9.886;2022-08-21T13:00:56;101787.47;;;28.13;32.23
13952;BME280;39535;52.192;9.886;2022-08-21T13:03:26;101793.63;;;27.77;32.17